Time;durP1;ratioP1;P1;durP2;ratioP2;P2;SDS_P1;SDS_P2;PMS_P1;PMS_P2;Temp;Humidity;BMP_temperature;BMP_pressure;BME280_temperature;BME280_humidity;BME280_pressure;Samples;Min_cycle;Max_cycle;Signal;HPM_P1;HPM_P2
2022/08/23 00:01:55;;;;;;;3.85;1.20;;;;;;;22.54;51.11;97901.75;4995450;28;20058;-57
2022/08/23 00:04:25;;;;;;;4.57;1.48;;;;;;;22.23;51.00;97871.28;4994148;28;20030;-59
2022/08/23 00:06:52;;;;;;;3.83;1.30;;;;;;;22.11;51.70;97873.19;4992138;28;20061;-59
2022/08/23 00:09:20;;;;;;;5.03;1.30;;;;;;;22.32;52.51;97898.22;4990274;28;20041;-56
2022/08/23 00:11:52;;;;;;;4.05;1.27;;;;;;;22.20;52.58;97867.28;4976812;28;20030;-57
2022/08/23 00:14:27;;;;;;;3.35;0.93;;;;;;;22.05;52.40;97853.75;4988929;28;20025;-56
2022/08/23 00:16:54;;;;;;;4.80;1.20;;;;;;;22.31;52.93;97894.75;4994838;28;20591;-56
2022/08/23 00:19:21;;;;;;;6.40;1.27;;;;;;;22.29;52.82;97886.25;4982612;28;20029;-57
2022/08/23 00:21:47;;;;;;;4.38;1.15;;;;;;;22.32;52.83;97893.72;4989053;28;20425;-56
2022/08/23 00:24:13;;;;;;;4.90;1.40;;;;;;;22.31;53.42;97892.13;4996699;28;20033;-57
2022/08/23 00:26:49;;;;;;;4.22;1.17;;;;;;;22.24;52.98;97889.56;4994853;28;20048;-57
2022/08/23 00:29:15;;;;;;;3.53;1.20;;;;;;;22.15;53.08;97891.00;4998565;28;20029;-56
2022/08/23 00:31:40;;;;;;;3.88;1.33;;;;;;;22.15;52.89;97890.22;4992569;28;20022;-57
2022/08/23 00:34:06;;;;;;;5.53;1.30;;;;;;;22.21;53.12;97897.97;4977649;28;20476;-59
2022/08/23 00:36:31;;;;;;;5.40;1.50;;;;;;;22.09;53.04;97891.97;4996821;28;20037;-56
2022/08/23 00:38:56;;;;;;;5.10;1.48;;;;;;;22.12;52.58;97894.13;4962134;28;20033;-56
2022/08/23 00:41:22;;;;;;;3.40;1.30;;;;;;;21.94;53.80;97884.53;4997740;28;20472;-56
2022/08/23 00:49:23;;;;;;;3.95;1.00;;;;;;;22.02;52.78;97891.28;4994710;28;20037;-57
2022/08/23 00:52:00;;;;;;;3.90;1.30;;;;;;;21.88;53.57;97854.50;4998470;28;20029;-58
2022/08/23 00:54:27;;;;;;;3.63;1.30;;;;;;;22.18;53.72;97897.69;4980312;28;20029;-57
2022/08/23 00:56:54;;;;;;;3.53;1.23;;;;;;;22.17;53.56;97890.78;4995071;28;20056;-60
2022/08/23 00:59:19;;;;;;;3.70;1.17;;;;;;;22.02;54.26;97873.56;4968825;28;20041;-56
2022/08/23 01:01:46;;;;;;;3.40;1.25;;;;;;;22.13;54.81;97894.94;4998120;28;20471;-57
2022/08/23 01:04:12;;;;;;;3.05;1.10;;;;;;;22.05;53.09;97896.91;5002733;28;20038;-58
2022/08/23 01:06:46;;;;;;;4.35;1.20;;;;;;;22.05;54.02;97899.56;4999239;28;20080;-59
2022/08/23 01:09:14;;;;;;;2.95;1.10;;;;;;;21.87;53.73;97866.16;4986056;28;20030;-57
2022/08/23 01:11:45;;;;;;;3.57;1.33;;;;;;;22.08;53.47;97895.63;4993419;28;20041;-55
2022/08/23 01:14:38;;;;;;;4.25;1.30;;;;;;;22.16;53.03;97891.78;5001088;28;20469;-57
2022/08/23 01:17:18;;;;;;;3.28;1.13;;;;;;;22.12;52.56;97888.81;4986870;28;20050;-55
2022/08/23 01:19:54;;;;;;;4.25;1.38;;;;;;;22.10;53.01;97892.75;5002671;28;20062;-57
2022/08/23 01:22:53;;;;;;;3.58;1.10;;;;;;;22.03;52.35;97900.81;4983380;28;20121;-55
2022/08/23 01:25:20;;;;;;;3.22;1.10;;;;;;;21.82;51.97;97873.19;5002040;28;20072;-55
2022/08/23 01:27:47;;;;;;;3.55;1.27;;;;;;;21.90;51.07;97888.66;4983204;28;20117;-56
2022/08/23 01:30:15;;;;;;;5.30;1.10;;;;;;;21.66;49.49;97854.34;4999712;28;20030;-58
2022/08/23 01:32:50;;;;;;;4.37;1.23;;;;;;;21.74;48.96;97873.53;4997286;28;20049;-58
2022/08/23 01:35:18;;;;;;;3.30;1.13;;;;;;;21.81;48.45;97868.91;5000920;28;20033;-58
2022/08/23 01:37:44;;;;;;;3.90;1.30;;;;;;;21.73;49.00;97869.31;4978424;28;20560;-56
2022/08/23 01:40:10;;;;;;;3.38;1.30;;;;;;;21.65;47.48;97871.28;4996519;28;20245;-56
2022/08/23 01:42:38;;;;;;;3.28;1.20;;;;;;;21.86;46.52;97895.47;4986835;28;20388;-58
2022/08/23 01:45:04;;;;;;;3.28;1.20;;;;;;;21.92;45.72;97897.19;5001589;28;20041;-56
2022/08/23 01:47:30;;;;;;;4.78;1.20;;;;;;;21.87;46.21;97905.84;4998884;28;20037;-56
2022/08/23 01:49:56;;;;;;;3.15;1.08;;;;;;;21.87;46.02;97913.78;5001275;28;20029;-57
2022/08/23 01:52:21;;;;;;;3.97;1.20;;;;;;;21.86;45.26;97904.22;4999018;28;20037;-57
2022/08/23 01:54:46;;;;;;;2.65;1.02;;;;;;;21.69;45.24;97877.69;4999232;28;20026;-58
2022/08/23 01:57:12;;;;;;;3.90;1.30;;;;;;;21.89;45.45;97911.69;4990199;28;20483;-57
2022/08/23 01:59:37;;;;;;;2.90;1.10;;;;;;;21.98;45.01;97914.00;4983404;28;20574;-56
2022/08/23 02:02:03;;;;;;;3.35;1.25;;;;;;;22.03;44.06;97908.75;4999549;28;20909;-57
2022/08/23 02:04:29;;;;;;;3.58;1.10;;;;;;;21.77;44.47;97876.53;5012341;28;20037;-56
2022/08/23 02:06:54;;;;;;;3.97;1.27;;;;;;;22.01;45.29;97916.97;4996310;28;20117;-57
2022/08/23 02:09:21;;;;;;;4.20;1.20;;;;;;;22.04;45.54;97910.38;5003270;28;20041;-56
2022/08/23 02:11:46;;;;;;;3.60;1.30;;;;;;;22.12;45.09;97917.16;4981352;28;20030;-56
2022/08/23 02:14:18;;;;;;;4.30;1.50;;;;;;;22.14;45.62;97915.88;4998132;28;20068;-57
2022/08/23 02:16:47;;;;;;;2.67;1.08;;;;;;;22.23;45.36;97917.13;4979789;28;20112;-58
2022/08/23 02:19:13;;;;;;;;;;;;;;;22.25;45.74;97922.97;4949712;28;20033;-58
2022/08/23 02:21:39;;;;;;;3.85;1.40;;;;;;;22.26;44.86;97929.09;5004241;28;19924;-56
2022/08/23 02:24:15;;;;;;;3.20;1.20;;;;;;;22.18;45.51;97927.59;5001592;28;20044;-56
2022/08/23 02:26:45;;;;;;;3.60;1.20;;;;;;;22.19;44.78;97928.41;5002507;28;20064;-58
2022/08/23 02:29:10;;;;;;;;;;;;;;;22.16;44.40;97934.16;4999309;28;20119;-57
2022/08/23 02:31:35;;;;;;;4.30;1.33;;;;;;;22.15;46.25;97932.56;4995748;28;19994;-57
2022/08/23 02:34:01;;;;;;;5.18;1.38;;;;;;;22.24;46.93;97933.78;4983370;28;20027;-59
2022/08/23 02:36:27;;;;;;;3.90;1.30;;;;;;;22.29;47.21;97944.50;5000268;28;20091;-56
2022/08/23 02:38:53;;;;;;;3.10;1.25;;;;;;;22.19;48.12;97939.78;4918146;28;20037;-56
2022/08/23 02:41:19;;;;;;;3.35;1.38;;;;;;;21.97;47.05;97925.59;4975837;28;20030;-57
2022/08/23 02:43:45;;;;;;;3.15;1.20;;;;;;;22.20;46.95;97937.97;5008285;28;20540;-56
2022/08/23 02:46:10;;;;;;;3.30;1.20;;;;;;;22.13;46.96;97939.94;4982753;28;21377;-58
2022/08/23 02:48:36;;;;;;;3.88;1.42;;;;;;;22.12;47.24;97930.38;4982467;28;20034;-58
2022/08/23 02:51:05;;;;;;;3.83;1.30;;;;;;;22.11;47.75;97932.22;4988653;28;20528;-58
2022/08/23 02:53:31;;;;;;;3.63;1.30;;;;;;;21.84;49.25;97898.38;4987375;28;20018;-56
2022/08/23 02:55:57;;;;;;;3.30;1.23;;;;;;;21.99;48.34;97932.25;4995458;28;20042;-58
2022/08/23 02:58:23;;;;;;;3.17;1.15;;;;;;;22.01;47.79;97947.91;4988184;28;20053;-58
2022/08/23 03:00:49;;;;;;;3.10;1.23;;;;;;;21.84;49.11;97940.69;4998375;28;20034;-56
2022/08/23 03:03:15;;;;;;;3.25;1.17;;;;;;;21.85;49.03;97950.25;5001016;28;20029;-57
2022/08/23 03:05:42;;;;;;;3.50;1.30;;;;;;;21.87;49.37;97948.19;4996069;28;20056;-58
2022/08/23 03:08:07;;;;;;;4.20;1.40;;;;;;;21.69;47.58;97898.88;4997210;28;20030;-57
2022/08/23 03:10:33;;;;;;;3.25;1.20;;;;;;;21.86;47.23;97935.97;4981294;28;20291;-55
2022/08/23 03:12:58;;;;;;;4.93;1.30;;;;;;;21.93;48.96;97945.63;4981935;28;20369;-55
2022/08/23 03:15:24;;;;;;;3.15;1.20;;;;;;;21.92;49.35;97960.69;5000769;28;20030;-56
2022/08/23 03:17:49;;;;;;;3.65;1.58;;;;;;;21.86;49.29;97954.50;4975241;28;20096;-53
2022/08/23 03:20:15;;;;;;;4.05;1.50;;;;;;;21.84;50.35;97953.94;4999647;28;21542;-58
2022/08/23 03:22:40;;;;;;;3.50;1.30;;;;;;;21.62;51.39;97911.41;4995140;28;20137;-53
2022/08/23 03:25:07;;;;;;;4.05;1.23;;;;;;;21.89;50.90;97954.03;5008912;28;20030;-56
2022/08/23 03:27:32;;;;;;;3.75;1.33;;;;;;;21.66;51.47;97924.97;5000321;28;20702;-55
2022/08/23 03:29:57;;;;;;;3.30;1.20;;;;;;;21.57;50.72;97908.66;4995157;28;20027;-56
2022/08/23 03:32:23;;;;;;;3.53;1.30;;;;;;;21.83;50.57;97960.28;4996895;28;20765;-57
2022/08/23 03:34:48;;;;;;;3.42;1.20;;;;;;;21.54;48.75;97910.97;5000027;28;20037;-56
2022/08/23 03:37:14;;;;;;;4.15;1.30;;;;;;;21.53;48.30;97910.16;4958038;28;20034;-58
2022/08/23 03:39:39;;;;;;;4.85;1.40;;;;;;;21.81;49.53;97949.13;4973352;28;20068;-55
2022/08/23 03:42:05;;;;;;;4.40;1.48;;;;;;;21.57;51.29;97915.78;5000835;28;20115;-56
2022/08/23 03:44:31;;;;;;;3.78;1.45;;;;;;;21.71;51.37;97951.53;4999447;28;20093;-58
2022/08/23 03:46:57;;;;;;;3.67;1.33;;;;;;;21.53;50.43;97923.38;4996738;28;20392;-58
2022/08/23 03:49:23;;;;;;;3.20;1.02;;;;;;;21.81;51.00;97946.47;5000762;28;20032;-55
2022/08/23 03:51:48;;;;;;;3.58;1.40;;;;;;;21.74;49.84;97948.44;4996342;28;20057;-56
2022/08/23 03:54:14;;;;;;;4.78;1.30;;;;;;;21.81;49.35;97956.22;4993342;28;20036;-56
2022/08/23 03:56:50;;;;;;;3.65;1.45;;;;;;;21.78;49.17;97954.06;4995798;28;20034;-57
2022/08/23 03:59:16;;;;;;;4.28;1.40;;;;;;;21.82;48.63;97957.84;4994131;28;20517;-56
2022/08/23 04:01:42;;;;;;;3.30;1.40;;;;;;;21.71;48.60;97950.75;5000156;28;20105;-57
2022/08/23 04:04:08;;;;;;;4.13;1.50;;;;;;;21.75;49.46;97946.59;4981295;28;20124;-56
2022/08/23 04:06:34;;;;;;;3.63;1.30;;;;;;;21.72;49.78;97968.22;4996938;28;20117;-55
2022/08/23 04:08:59;;;;;;;3.67;1.30;;;;;;;21.63;49.86;97960.66;4981562;28;20065;-56
2022/08/23 04:11:25;;;;;;;5.18;1.45;;;;;;;21.69;49.67;97965.00;5000879;28;20809;-56
2022/08/23 04:13:51;;;;;;;3.53;1.40;;;;;;;21.67;49.72;97968.94;4991635;28;20041;-56
2022/08/23 04:16:17;;;;;;;3.70;1.48;;;;;;;21.38;50.01;97934.41;4998922;28;20128;-56
2022/08/23 04:18:43;;;;;;;3.85;1.30;;;;;;;21.59;49.35;97972.72;4983309;28;20030;-55
2022/08/23 04:21:12;;;;;;;4.55;1.45;;;;;;;21.34;49.61;97937.75;4997751;28;20061;-57
2022/08/23 04:23:38;;;;;;;4.85;1.40;;;;;;;21.65;49.53;97979.75;4998564;28;20114;-56
2022/08/23 04:26:05;;;;;;;4.13;1.38;;;;;;;21.66;49.74;97983.19;4967686;28;20034;-59
2022/08/23 04:28:31;;;;;;;5.70;1.50;;;;;;;21.52;49.25;97958.81;4996453;28;20106;-55
2022/08/23 04:30:59;;;;;;;3.58;1.40;;;;;;;21.63;49.74;97984.47;4997939;28;20038;-59
2022/08/23 04:33:25;;;;;;;3.88;1.30;;;;;;;21.67;49.72;97980.31;5000157;28;20037;-57
2022/08/23 04:35:50;;;;;;;4.30;1.40;;;;;;;21.62;50.42;97989.97;5008006;28;20096;-56
2022/08/23 04:38:16;;;;;;;4.95;1.50;;;;;;;21.53;51.61;97978.94;4958853;28;20785;-55
2022/08/23 04:43:26;;;;;;;3.45;1.38;;;;;;;21.48;51.22;97989.38;5007866;28;20177;-56
2022/08/23 04:45:51;;;;;;;3.90;1.38;;;;;;;21.45;50.88;97992.53;5005510;28;20055;-55
2022/08/23 04:48:17;;;;;;;3.80;1.40;;;;;;;21.46;50.66;97983.53;5003811;28;20083;-52
2022/08/23 04:50:42;;;;;;;4.05;1.40;;;;;;;21.46;50.57;97989.63;5001031;28;20025;-56
2022/08/23 04:53:08;;;;;;;3.55;1.35;;;;;;;21.23;50.35;97948.09;5004550;28;20455;-55
2022/08/23 04:55:33;;;;;;;5.70;1.50;;;;;;;21.53;50.22;97992.16;5005549;28;20021;-54
2022/08/23 04:57:59;;;;;;;4.05;1.55;;;;;;;21.54;49.75;97991.13;4939461;28;20525;-58
2022/08/23 05:00:24;;;;;;;4.18;1.50;;;;;;;21.49;50.35;97989.16;4989694;28;20025;-56
2022/08/23 05:02:49;;;;;;;3.60;1.40;;;;;;;21.52;49.82;97987.91;4998064;28;20564;-54
2022/08/23 05:05:15;;;;;;;3.80;1.50;;;;;;;21.48;50.08;97990.22;5003337;28;20538;-53
2022/08/23 05:07:41;;;;;;;3.45;1.30;;;;;;;21.47;50.17;97998.38;5005870;28;20045;-54
2022/08/23 05:10:08;;;;;;;3.10;1.20;;;;;;;21.22;49.12;97945.69;5003544;28;20034;-54
2022/08/23 05:12:34;;;;;;;4.43;1.38;;;;;;;21.45;49.11;97981.94;4982497;28;20034;-55
2022/08/23 05:15:00;;;;;;;3.45;1.30;;;;;;;21.51;47.41;97996.88;4981128;28;20038;-51
2022/08/23 05:17:25;;;;;;;3.88;1.52;;;;;;;21.51;47.39;97988.94;4984708;28;20033;-52
2022/08/23 05:19:51;;;;;;;3.67;1.40;;;;;;;21.54;48.32;98001.72;4993393;28;20037;-56
2022/08/23 05:22:17;;;;;;;3.60;1.50;;;;;;;21.55;50.37;98007.81;4978577;28;20030;-54
2022/08/23 05:24:42;;;;;;;3.85;1.40;;;;;;;21.49;52.20;98001.59;4996211;28;20065;-53
2022/08/23 05:27:08;;;;;;;4.15;1.52;;;;;;;21.18;53.09;97974.41;4998574;28;20429;-58
2022/08/23 05:29:34;;;;;;;3.78;1.48;;;;;;;21.41;52.06;98004.53;4982039;28;21335;-54
2022/08/23 05:32:00;;;;;;;3.47;1.40;;;;;;;21.05;51.41;97964.06;5001580;28;20056;-52
2022/08/23 05:34:25;;;;;;;3.28;1.25;;;;;;;21.33;52.16;98020.75;5001373;28;20041;-53
2022/08/23 05:36:51;;;;;;;4.10;1.50;;;;;;;21.35;51.46;98016.03;5002454;28;20037;-55
2022/08/23 05:39:17;;;;;;;3.80;1.50;;;;;;;21.36;50.58;98009.72;5003253;28;20026;-54
2022/08/23 05:41:43;;;;;;;3.75;1.40;;;;;;;21.33;51.29;98002.25;4997239;28;20041;-53
2022/08/23 05:44:12;;;;;;;5.63;1.70;;;;;;;21.30;50.30;98006.97;4987063;28;20088;-56
2022/08/23 05:46:38;;;;;;;4.50;1.58;;;;;;;21.38;51.19;98018.25;4985772;28;20156;-53
2022/08/23 05:49:04;;;;;;;3.85;1.65;;;;;;;21.30;50.19;98028.13;5000488;28;20620;-52
2022/08/23 05:51:32;;;;;;;4.53;1.70;;;;;;;21.24;49.95;98029.00;4994237;28;20107;-54
2022/08/23 05:53:59;;;;;;;5.13;1.90;;;;;;;21.26;49.90;98031.44;4996964;28;20023;-51
2022/08/23 05:56:34;;;;;;;4.68;1.58;;;;;;;21.21;49.35;98031.31;5001758;28;20813;-52
2022/08/23 05:59:02;;;;;;;4.75;1.52;;;;;;;20.98;49.70;97990.59;5002225;28;20076;-52
2022/08/23 06:01:29;;;;;;;3.80;1.33;;;;;;;21.15;49.59;98025.09;5000056;28;20124;-52
2022/08/23 06:03:54;;;;;;;4.75;1.70;;;;;;;21.22;50.29;98032.91;4974957;28;20036;-55
2022/08/23 06:06:21;;;;;;;3.65;1.20;;;;;;;21.27;50.68;98030.41;5000542;28;20038;-54
2022/08/23 06:08:47;;;;;;;3.88;1.33;;;;;;;21.31;49.67;98029.72;4994352;28;20389;-57
2022/08/23 06:11:18;;;;;;;4.13;1.52;;;;;;;21.26;47.92;98034.88;5000491;28;20144;-57
2022/08/23 06:13:51;;;;;;;3.33;1.30;;;;;;;21.08;46.42;98003.22;5000977;28;20041;-55
2022/08/23 06:16:18;;;;;;;5.20;1.48;;;;;;;21.02;45.25;97983.00;4998299;28;20026;-57
2022/08/23 06:18:44;;;;;;;4.15;1.42;;;;;;;21.13;43.98;98001.53;4998113;28;20077;-55
2022/08/23 06:21:13;;;;;;;4.88;1.45;;;;;;;21.31;43.53;98037.63;4996255;28;20033;-56
2022/08/23 06:23:39;;;;;;;4.78;1.40;;;;;;;21.30;44.05;98037.88;4936912;28;20496;-55
2022/08/23 06:26:21;;;;;;;3.92;1.48;;;;;;;21.33;43.92;98024.19;5007830;28;20034;-56
2022/08/23 06:28:50;;;;;;;4.50;1.50;;;;;;;21.38;44.12;98034.09;5000982;28;20038;-55
2022/08/23 06:31:43;;;;;;;4.25;1.63;;;;;;;21.35;46.31;98034.56;5001845;28;20026;-56
2022/08/23 06:34:00;;;;;;;5.10;1.70;;;;;;;21.35;46.49;98042.47;4996180;28;20117;-56
2022/08/23 06:36:26;;;;;;;5.25;1.55;;;;;;;21.32;46.90;98033.19;4996058;28;20083;-56
2022/08/23 06:38:51;;;;;;;4.35;1.80;;;;;;;21.09;45.66;97986.34;5000740;28;20053;-56
2022/08/23 06:41:17;;;;;;;6.28;1.40;;;;;;;21.45;44.63;98032.97;4977556;28;20452;-54
2022/08/23 06:43:42;;;;;;;4.47;1.23;;;;;;;21.49;43.69;98031.47;5001212;28;20037;-56
2022/08/23 06:46:08;;;;;;;3.83;1.52;;;;;;;21.35;42.16;98003.63;5000886;28;20165;-50
2022/08/23 06:48:34;;;;;;;3.80;1.30;;;;;;;21.55;41.13;98032.41;4996246;28;20077;-56
2022/08/23 06:50:59;;;;;;;3.65;1.30;;;;;;;21.42;40.21;98012.25;5002644;28;20689;-54
2022/08/23 06:53:24;;;;;;;3.88;1.33;;;;;;;21.61;39.82;98036.78;4997612;28;20401;-55
2022/08/23 06:55:50;;;;;;;2.83;1.20;;;;;;;21.56;39.51;98007.56;4998771;28;20038;-56
2022/08/23 06:58:15;;;;;;;3.60;1.30;;;;;;;21.76;39.53;98035.50;4996791;28;20085;-51
2022/08/23 07:00:41;;;;;;;4.03;1.17;;;;;;;21.26;39.33;97947.63;4983856;28;20033;-57
2022/08/23 07:03:06;;;;;;;8.50;1.30;;;;;;;21.63;39.48;98005.63;5001671;28;20104;-56
2022/08/23 07:05:32;;;;;;;4.55;1.33;;;;;;;21.89;38.09;98032.63;4998230;28;20041;-55
2022/08/23 07:07:57;;;;;;;8.30;1.73;;;;;;;21.66;37.64;97999.06;4997567;28;20148;-54
2022/08/23 07:10:22;;;;;;;4.70;1.20;;;;;;;21.86;37.50;98028.59;5000409;28;20247;-60
2022/08/23 07:12:48;;;;;;;4.75;1.70;;;;;;;21.68;40.40;98012.84;4999318;28;20105;-54
2022/08/23 07:15:14;;;;;;;3.22;1.30;;;;;;;21.82;38.76;98038.03;4977950;28;20089;-54
2022/08/23 07:17:39;;;;;;;3.90;1.50;;;;;;;21.51;43.25;98023.31;5000540;28;20033;-57
2022/08/23 07:20:06;;;;;;;4.93;1.60;;;;;;;21.53;46.09;98045.06;4981526;28;20113;-56
2022/08/23 07:22:31;;;;;;;3.75;1.40;;;;;;;21.55;46.14;98042.97;4999956;28;20037;-53
2022/08/23 07:24:57;;;;;;;4.13;1.50;;;;;;;21.43;46.40;98021.81;4995574;28;20121;-56
2022/08/23 07:27:22;;;;;;;4.45;1.30;;;;;;;21.40;47.67;98016.16;4993077;28;20025;-52
2022/08/23 07:29:48;;;;;;;4.88;1.40;;;;;;;21.51;48.64;98049.78;4996018;28;20378;-52
2022/08/23 07:32:13;;;;;;;4.43;1.45;;;;;;;21.52;48.65;98054.03;4997495;28;20066;-54
2022/08/23 07:34:38;;;;;;;4.40;1.40;;;;;;;21.33;49.43;98026.84;4999643;28;20481;-52
2022/08/23 07:37:05;;;;;;;5.57;1.75;;;;;;;21.44;46.25;98049.84;4996652;28;20041;-55
2022/08/23 07:39:30;;;;;;;5.50;1.40;;;;;;;21.37;48.66;98048.34;4919209;28;20091;-52
2022/08/23 07:41:59;;;;;;;7.13;1.42;;;;;;;21.39;48.09;98052.34;4999819;28;20297;-59
2022/08/23 07:44:24;;;;;;;4.32;1.40;;;;;;;21.25;48.56;98014.78;4996382;28;20087;-57
2022/08/23 07:46:50;;;;;;;5.50;1.58;;;;;;;21.45;49.06;98051.50;4998111;28;20034;-55
2022/08/23 07:49:16;;;;;;;4.43;1.27;;;;;;;21.52;49.22;98054.03;5001096;28;20041;-53
2022/08/23 07:51:45;;;;;;;6.47;1.60;;;;;;;21.45;49.31;98045.41;5000703;28;20030;-56
2022/08/23 07:54:11;;;;;;;4.13;1.40;;;;;;;21.50;49.83;98058.72;5000110;28;20069;-55
2022/08/23 07:56:37;;;;;;;3.67;1.40;;;;;;;21.46;49.52;98065.50;4995000;28;20026;-55
2022/08/23 07:59:04;;;;;;;4.65;1.40;;;;;;;21.45;48.53;98062.06;4997941;28;20049;-55
2022/08/23 08:01:30;;;;;;;4.40;1.52;;;;;;;21.42;47.37;98059.84;4996437;28;20105;-57
2022/08/23 08:03:57;;;;;;;5.20;1.42;;;;;;;21.45;47.12;98050.69;4998004;28;20109;-56
2022/08/23 08:06:23;;;;;;;6.80;1.70;;;;;;;21.45;47.05;98067.38;4996258;28;20493;-55
2022/08/23 08:08:49;;;;;;;5.13;1.60;;;;;;;21.41;47.00;98068.00;4995646;28;20025;-56
2022/08/23 08:11:17;;;;;;;6.07;1.88;;;;;;;21.44;45.68;98072.84;4995543;28;21492;-58
2022/08/23 08:13:44;;;;;;;7.55;1.70;;;;;;;21.49;46.43;98071.16;4978049;28;20026;-55
2022/08/23 08:16:18;;;;;;;5.18;1.58;;;;;;;21.22;45.77;98046.94;4986270;28;20040;-56
2022/08/23 08:18:43;;;;;;;4.90;1.60;;;;;;;21.36;43.49;98070.53;5000562;28;20667;-56
2022/08/23 08:21:13;;;;;;;5.25;1.45;;;;;;;21.17;44.02;98038.88;5001489;28;20092;-54
2022/08/23 08:23:38;;;;;;;5.78;1.75;;;;;;;21.41;45.14;98078.56;4998165;28;20396;-52
2022/08/23 08:26:05;;;;;;;5.70;1.58;;;;;;;21.74;44.18;98085.19;5000099;28;20038;-55
2022/08/23 08:28:32;;;;;;;11.93;2.40;;;;;;;23.11;41.16;98075.00;4983408;28;20994;-53
2022/08/23 08:30:57;;;;;;;4.85;1.48;;;;;;;24.74;36.99;98081.88;4997428;28;20026;-54
2022/08/23 08:33:25;;;;;;;5.93;1.58;;;;;;;26.30;31.81;98074.03;4998954;28;20025;-55
2022/08/23 08:35:52;;;;;;;6.32;2.00;;;;;;;27.61;30.18;98079.09;4907316;28;20064;-56
2022/08/23 08:38:17;;;;;;;5.80;2.20;;;;;;;28.34;28.48;98073.34;4998205;28;20030;-58
2022/08/23 08:40:43;;;;;;;6.28;1.90;;;;;;;29.14;26.95;98064.38;4995606;28;20477;-59
2022/08/23 08:43:26;;;;;;;6.15;1.50;;;;;;;29.92;25.84;98072.56;4996872;28;20034;-56
2022/08/23 08:46:09;;;;;;;5.22;1.73;;;;;;;30.57;24.25;98082.78;4989502;28;20480;-56
2022/08/23 08:48:42;;;;;;;6.43;1.42;;;;;;;30.88;23.37;98078.91;4990208;28;20022;-51
2022/08/23 08:51:37;;;;;;;6.22;1.70;;;;;;;31.12;22.99;98082.31;4990891;28;20026;-51
2022/08/23 08:54:05;;;;;;;3.80;1.27;;;;;;;30.95;22.08;98080.16;4970812;28;20108;-53
2022/08/23 08:56:33;;;;;;;4.20;1.27;;;;;;;30.60;22.30;98068.03;4987920;28;20022;-56
2022/08/23 08:59:05;;;;;;;3.92;1.60;;;;;;;30.45;22.29;98090.47;4987675;28;20018;-49
2022/08/23 09:01:32;;;;;;;6.07;1.50;;;;;;;29.51;23.57;98087.09;4987128;28;20064;-52
2022/08/23 09:03:57;;;;;;;7.05;1.55;;;;;;;28.59;24.74;98094.94;4975541;28;20018;-54
2022/08/23 09:06:42;;;;;;;9.25;1.77;;;;;;;27.93;26.57;98092.19;4979104;28;20030;-55
2022/08/23 09:09:10;;;;;;;5.75;1.60;;;;;;;27.11;27.47;98094.03;4983787;28;20042;-54
2022/08/23 09:12:01;;;;;;;4.45;1.42;;;;;;;26.63;28.28;98089.66;4984342;28;20022;-55
2022/08/23 09:14:46;;;;;;;5.07;1.42;;;;;;;26.52;27.36;98084.50;4982052;28;20083;-54
2022/08/23 09:17:22;;;;;;;4.45;1.40;;;;;;;26.50;28.63;98090.09;4993952;28;20283;-57
2022/08/23 09:19:49;;;;;;;4.30;1.60;;;;;;;26.44;28.83;98086.63;5015147;28;20030;-53
2022/08/23 09:22:21;;;;;;;3.42;1.17;;;;;;;26.59;29.26;98080.53;5004048;28;20480;-52
2022/08/23 09:24:46;;;;;;;4.28;1.40;;;;;;;26.75;28.16;98078.75;5003684;28;20116;-60
2022/08/23 09:27:12;;;;;;;3.75;1.27;;;;;;;26.81;28.16;98082.22;4998402;28;20034;-52
2022/08/23 09:29:52;;;;;;;4.15;1.38;;;;;;;26.89;28.07;98086.25;5003384;28;20701;-54
2022/08/23 09:32:28;;;;;;;3.30;1.40;;;;;;;26.96;28.07;98071.59;4993012;28;20033;-55
2022/08/23 09:35:16;;;;;;;3.72;1.27;;;;;;;27.08;28.85;98082.00;5000062;28;20091;-52
2022/08/23 09:38:20;;;;;;;4.25;1.35;;;;;;;26.94;29.39;98073.75;5002261;28;20119;-55
2022/08/23 09:40:47;;;;;;;4.15;1.30;;;;;;;26.97;29.44;98072.41;4998189;28;20068;-54
2022/08/23 09:43:18;;;;;;;5.00;1.42;;;;;;;27.23;28.40;98078.56;4998192;28;20116;-52
2022/08/23 09:45:49;;;;;;;5.50;1.60;;;;;;;26.78;30.28;98048.13;4999986;28;20022;-55
2022/08/23 09:48:30;;;;;;;4.07;1.40;;;;;;;26.76;30.68;98076.88;4997881;28;20041;-59
2022/08/23 09:51:23;;;;;;;3.38;1.33;;;;;;;26.50;31.21;98044.78;4937240;28;20044;-55
2022/08/23 09:53:52;;;;;;;4.13;1.25;;;;;;;26.53;29.83;98070.13;4996204;28;20517;-50
2022/08/23 09:56:23;;;;;;;3.40;1.27;;;;;;;26.45;29.87;98042.13;4995244;28;20034;-55
2022/08/23 09:58:52;;;;;;;4.68;1.80;;;;;;;26.63;32.94;98075.50;4998510;28;20476;-53
2022/08/23 10:01:22;;;;;;;4.70;1.63;;;;;;;26.70;34.69;98081.41;4992891;28;20125;-55
2022/08/23 10:04:13;;;;;;;5.35;1.65;;;;;;;26.76;34.38;98077.69;4998166;28;20136;-55
2022/08/23 10:06:41;;;;;;;4.28;1.58;;;;;;;27.16;32.00;98075.34;4996483;28;20018;-54
2022/08/23 10:09:08;;;;;;;3.87;1.70;;;;;;;27.14;32.52;98054.25;4991680;28;20030;-56
2022/08/23 10:11:44;;;;;;;8.85;2.08;;;;;;;27.07;32.81;98075.09;5000087;28;20165;-56
2022/08/23 10:14:13;;;;;;;5.45;1.77;;;;;;;26.97;33.39;98069.72;5019485;28;20041;-58
2022/08/23 10:16:54;;;;;;;4.13;1.52;;;;;;;26.64;33.72;98019.25;4986955;28;20029;-53
2022/08/23 10:19:38;;;;;;;4.32;1.50;;;;;;;27.07;32.84;98066.25;5008737;28;20048;-56
2022/08/23 10:22:27;;;;;;;5.70;1.60;;;;;;;26.99;32.65;98071.06;5001903;28;20029;-55
2022/08/23 10:25:11;;;;;;;4.90;1.63;;;;;;;26.96;32.73;98068.94;4997290;28;20047;-54
2022/08/23 10:30:54;;;;;;;4.47;1.60;;;;;;;26.96;32.03;98030.78;5002510;28;20096;-55
2022/08/23 10:33:25;;;;;;;4.65;1.60;;;;;;;26.85;31.41;98029.97;5001729;28;20029;-54
2022/08/23 10:36:13;;;;;;;4.43;1.83;;;;;;;27.22;31.99;98059.09;4998856;28;20104;-55
2022/08/23 10:38:43;;;;;;;4.13;1.48;;;;;;;27.04;31.30;98019.59;4978971;28;20025;-57
2022/08/23 10:41:32;;;;;;;3.78;1.58;;;;;;;27.28;32.29;98048.44;4993838;28;20049;-55
2022/08/23 10:44:03;;;;;;;5.00;1.75;;;;;;;27.30;31.37;98055.09;5004538;28;20086;-53
2022/08/23 10:46:30;;;;;;;5.18;1.60;;;;;;;27.34;31.25;98050.81;4990243;28;20028;-53
2022/08/23 10:49:00;;;;;;;7.45;1.63;;;;;;;27.31;31.99;98045.22;5001006;28;20018;-56
2022/08/23 10:51:33;;;;;;;6.38;1.55;;;;;;;27.42;31.33;98049.50;4985507;28;20123;-56
2022/08/23 10:54:11;;;;;;;5.50;1.70;;;;;;;27.48;30.68;98050.31;5008047;28;20445;-55
2022/08/23 10:56:37;;;;;;;4.43;1.45;;;;;;;27.54;31.41;98047.34;4982697;28;20238;-53
2022/08/23 10:59:09;;;;;;;4.25;1.30;;;;;;;27.58;31.61;98042.25;4977818;28;20396;-54
2022/08/23 11:01:44;;;;;;;4.03;1.30;;;;;;;27.55;30.69;98040.16;4997284;28;20208;-54
2022/08/23 11:04:24;;;;;;;4.18;1.50;;;;;;;27.59;30.38;98033.97;4994491;28;20441;-52
2022/08/23 11:06:52;;;;;;;4.22;1.70;;;;;;;27.57;30.68;98030.78;5002160;28;20042;-55
2022/08/23 11:09:17;;;;;;;4.20;1.67;;;;;;;27.71;30.94;98036.38;4996796;28;20041;-54
2022/08/23 11:12:01;;;;;;;4.10;1.40;;;;;;;27.80;30.63;98029.41;5003605;28;20034;-55
2022/08/23 11:14:59;;;;;;;5.32;1.70;;;;;;;27.66;30.41;97996.34;4993834;28;20045;-55
2022/08/23 11:17:30;;;;;;;4.22;1.70;;;;;;;28.02;31.21;98022.97;4997409;28;20045;-56
2022/08/23 11:20:02;;;;;;;6.22;1.70;;;;;;;28.00;30.21;98022.41;4944443;28;20034;-55
2022/08/23 11:22:54;;;;;;;4.50;1.80;;;;;;;27.95;30.12;98014.44;4983049;28;20493;-56
2022/08/23 11:25:25;;;;;;;5.05;1.50;;;;;;;27.81;30.47;97993.59;4988495;28;20061;-53
2022/08/23 11:28:33;;;;;;;4.97;1.60;;;;;;;28.01;30.90;98025.91;4997745;28;20080;-55
2022/08/23 11:31:23;;;;;;;4.50;1.65;;;;;;;28.12;31.15;98020.25;4993393;28;20227;-58
2022/08/23 11:33:52;;;;;;;3.90;1.60;;;;;;;28.16;30.35;98023.97;4997732;28;20029;-52
2022/08/23 11:36:22;;;;;;;4.25;1.48;;;;;;;27.94;30.18;97994.13;4990788;28;20477;-55
2022/08/23 11:38:48;;;;;;;3.45;1.50;;;;;;;28.24;29.54;98025.28;4958729;28;20033;-54
2022/08/23 11:41:13;;;;;;;4.10;1.50;;;;;;;28.23;29.67;97990.81;5001327;28;20030;-56
2022/08/23 11:43:41;;;;;;;5.43;1.90;;;;;;;28.37;29.86;98016.66;4998646;28;20432;-57
2022/08/23 11:46:22;;;;;;;4.47;1.60;;;;;;;28.04;29.15;97979.94;4995950;28;20498;-54
2022/08/23 11:49:10;;;;;;;5.70;1.70;;;;;;;28.43;29.58;98020.09;4990038;28;20069;-55
2022/08/23 11:52:13;;;;;;;4.75;1.60;;;;;;;28.46;29.49;98014.22;4992135;28;20088;-56
2022/08/23 11:54:53;;;;;;;3.80;1.50;;;;;;;28.31;29.48;97983.03;4991484;28;20026;-57
2022/08/23 11:57:43;;;;;;;6.55;1.80;;;;;;;28.53;29.65;98019.28;4976222;28;20029;-53